sensor_id;sensor_type;location;lat;lon;timestamp;pressure;altitude;pressure_sealevel;temperature;humidity
32789;BME280;19141;48.980;8.410;2023-01-27T05:22:33;100656.22;;;-0.61;100.00
32789;BME280;19141;48.980;8.410;2023-01-27T05:24:58;100653.44;;;-0.58;100.00
32789;BME280;19141;48.980;8.410;2023-01-27T05:27:23;100650.53;;;-0.53;100.00
32789;BME280;19141;48.980;8.410;2023-01-27T05:29:49;100653.63;;;-0.46;100.00
32789;BME280;19141;48.980;8.410;2023-01-27T05:32:14;100653.44;;;-0.43;100.00
32789;BME280;19141;48.980;8.410;2023-01-27T05:34:39;100654.09;;;-0.54;100.00
32789;BME280;19141;48.980;8.410;2023-01-27T05:37:05;100657.28;;;-0.49;100.00
32789;BME280;19141;48.980;8.410;2023-01-27T05:39:30;100647.91;;;-0.53;100.00
32789;BME280;19141;48.980;8.410;2023-01-27T05:41:56;100652.78;;;-0.47;100.00
32789;BME280;19141;48.980;8.410;2023-01-27T05:44:21;100654.94;;;-0.39;100.00
32789;BME280;19141;48.980;8.410;2023-01-27T05:46:46;100662.03;;;-0.41;100.00
32789;BME280;19141;48.980;8.410;2023-01-27T05:49:12;100667.47;;;-0.44;100.00
32789;BME280;19141;48.980;8.410;2023-01-27T05:51:38;100667.53;;;-0.46;100.00
32789;BME280;19141;48.980;8.410;2023-01-27T05:54:04;100661.19;;;-0.42;100.00
32789;BME280;19141;48.980;8.410;2023-01-27T05:56:30;100670.38;;;-0.35;100.00
32789;BME280;19141;48.980;8.410;2023-01-27T05:58:56;100664.75;;;-0.43;100.00
32789;BME280;19141;48.980;8.410;2023-01-27T06:01:25;100679.91;;;-0.34;100.00
32789;BME280;19141;48.980;8.410;2023-01-27T06:03:51;100665.78;;;-0.31;100.00
32789;BME280;19141;48.980;8.410;2023-01-27T06:06:18;100661.78;;;-0.37;100.00
32789;BME280;19141;48.980;8.410;2023-01-27T06:08:45;100653.09;;;-0.37;100.00
32789;BME280;19141;48.980;8.410;2023-01-27T06:11:11;100666.44;;;-0.28;100.00
32789;BME280;19141;48.980;8.410;2023-01-27T06:13:37;100671.13;;;-0.33;100.00
32789;BME280;19141;48.980;8.410;2023-01-27T06:16:11;100676.06;;;-0.28;100.00
32789;BME280;19141;48.980;8.410;2023-01-27T06:18:37;100672.44;;;-0.25;100.00
32789;BME280;19141;48.980;8.410;2023-01-27T06:21:06;100678.31;;;-0.22;100.00
32789;BME280;19141;48.980;8.410;2023-01-27T06:23:32;100674.22;;;-0.26;100.00
32789;BME280;19141;48.980;8.410;2023-01-27T06:26:03;100672.50;;;-0.27;100.00
32789;BME280;19141;48.980;8.410;2023-01-27T06:28:29;100680.38;;;-0.27;100.00
32789;BME280;19141;48.980;8.410;2023-01-27T06:30:55;100684.75;;;-0.28;100.00
32789;BME280;19141;48.980;8.410;2023-01-27T06:33:20;100689.16;;;-0.28;100.00
32789;BME280;19141;48.980;8.410;2023-01-27T06:35:46;100698.63;;;-0.25;100.00
32789;BME280;19141;48.980;8.410;2023-01-27T06:38:12;100694.22;;;-0.25;100.00
32789;BME280;19141;48.980;8.410;2023-01-27T06:40:40;100699.84;;;-0.31;100.00
32789;BME280;19141;48.980;8.410;2023-01-27T06:43:10;100700.19;;;-0.23;100.00
32789;BME280;19141;48.980;8.410;2023-01-27T06:45:36;100700.19;;;-0.23;100.00
32789;BME280;19141;48.980;8.410;2023-01-27T06:48:02;100701.25;;;-0.25;100.00
32789;BME280;19141;48.980;8.410;2023-01-27T06:50:28;100700.66;;;-0.31;100.00
32789;BME280;19141;48.980;8.410;2023-01-27T06:53:01;100701.13;;;-0.24;100.00
32789;BME280;19141;48.980;8.410;2023-01-27T06:55:27;100698.06;;;-0.31;100.00
32789;BME280;19141;48.980;8.410;2023-01-27T06:57:53;100698.78;;;-0.29;100.00
32789;BME280;19141;48.980;8.410;2023-01-27T07:00:19;100701.03;;;-0.22;100.00
32789;BME280;19141;48.980;8.410;2023-01-27T07:02:44;100701.03;;;-0.22;100.00
32789;BME280;19141;48.980;8.410;2023-01-27T07:05:10;100709.47;;;-0.32;100.00
32789;BME280;19141;48.980;8.410;2023-01-27T07:07:36;100706.53;;;-0.27;100.00
32789;BME280;19141;48.980;8.410;2023-01-27T07:10:02;100715.25;;;-0.27;100.00
32789;BME280;19141;48.980;8.410;2023-01-27T07:12:28;100706.28;;;-0.22;100.00
32789;BME280;19141;48.980;8.410;2023-01-27T07:14:53;100719.56;;;-0.25;100.00
32789;BME280;19141;48.980;8.410;2023-01-27T07:17:19;100717.41;;;-0.19;100.00
32789;BME280;19141;48.980;8.410;2023-01-27T07:19:44;100720.69;;;-0.15;100.00
32789;BME280;19141;48.980;8.410;2023-01-27T07:22:09;100722.19;;;-0.11;100.00
32789;BME280;19141;48.980;8.410;2023-01-27T07:24:35;100724.03;;;-0.13;100.00
32789;BME280;19141;48.980;8.410;2023-01-27T07:27:00;100730.22;;;-0.14;100.00
32789;BME280;19141;48.980;8.410;2023-01-27T07:29:26;100738.00;;;-0.13;100.00
32789;BME280;19141;48.980;8.410;2023-01-27T07:31:51;100742.78;;;-0.05;100.00
32789;BME280;19141;48.980;8.410;2023-01-27T07:34:16;100738.28;;;-0.03;100.00
32789;BME280;19141;48.980;8.410;2023-01-27T07:36:42;100748.75;;;-0.03;100.00
32789;BME280;19141;48.980;8.410;2023-01-27T07:39:07;100750.25;;;0.01;100.00
32789;BME280;19141;48.980;8.410;2023-01-27T07:41:33;100746.31;;;-0.06;100.00
32789;BME280;19141;48.980;8.410;2023-01-27T07:44:00;100760.06;;;0.12;100.00
32789;BME280;19141;48.980;8.410;2023-01-27T07:46:25;100756.22;;;0.17;100.00
32789;BME280;19141;48.980;8.410;2023-01-27T07:48:51;100761.38;;;0.19;100.00
32789;BME280;19141;48.980;8.410;2023-01-27T07:51:17;100759.69;;;0.18;100.00
32789;BME280;19141;48.980;8.410;2023-01-27T07:53:42;100774.78;;;0.14;100.00
32789;BME280;19141;48.980;8.410;2023-01-27T07:56:08;100773.47;;;0.07;100.00
32789;BME280;19141;48.980;8.410;2023-01-27T07:58:38;100774.56;;;0.03;100.00
32789;BME280;19141;48.980;8.410;2023-01-27T08:01:08;100766.91;;;0.00;100.00
32789;BME280;19141;48.980;8.410;2023-01-27T08:03:35;100778.88;;;0.04;100.00
32789;BME280;19141;48.980;8.410;2023-01-27T08:06:11;100777.56;;;0.11;100.00
32789;BME280;19141;48.980;8.410;2023-01-27T08:08:37;100785.41;;;0.11;100.00
32789;BME280;19141;48.980;8.410;2023-01-27T08:11:05;100783.38;;;0.16;100.00
32789;BME280;19141;48.980;8.410;2023-01-27T08:13:33;100784.03;;;0.20;100.00
32789;BME280;19141;48.980;8.410;2023-01-27T08:16:00;100783.16;;;0.19;100.00
32789;BME280;19141;48.980;8.410;2023-01-27T08:18:27;100782.63;;;0.14;99.78
32789;BME280;19141;48.980;8.410;2023-01-27T08:20:54;100790.66;;;0.11;100.00
32789;BME280;19141;48.980;8.410;2023-01-27T08:23:21;100781.31;;;0.07;99.99
32789;BME280;19141;48.980;8.410;2023-01-27T08:25:54;100785.25;;;0.14;99.67
32789;BME280;19141;48.980;8.410;2023-01-27T08:28:21;100788.50;;;0.18;98.23
32789;BME280;19141;48.980;8.410;2023-01-27T08:30:47;100788.41;;;0.19;96.49
32789;BME280;19141;48.980;8.410;2023-01-27T08:33:20;100778.31;;;0.13;95.97
32789;BME280;19141;48.980;8.410;2023-01-27T08:35:47;100780.53;;;0.19;95.96
32789;BME280;19141;48.980;8.410;2023-01-27T08:38:16;100775.88;;;0.24;95.81
32789;BME280;19141;48.980;8.410;2023-01-27T08:40:42;100787.97;;;0.27;95.61
32789;BME280;19141;48.980;8.410;2023-01-27T08:43:08;100784.50;;;0.26;94.99
32789;BME280;19141;48.980;8.410;2023-01-27T08:45:34;100787.66;;;0.32;94.84
32789;BME280;19141;48.980;8.410;2023-01-27T08:48:00;100778.78;;;0.34;94.35
32789;BME280;19141;48.980;8.410;2023-01-27T08:50:26;100779.53;;;0.36;94.12
32789;BME280;19141;48.980;8.410;2023-01-27T08:52:52;100781.31;;;0.36;93.99
32789;BME280;19141;48.980;8.410;2023-01-27T08:55:28;100778.41;;;0.40;93.75
32789;BME280;19141;48.980;8.410;2023-01-27T08:57:54;100779.53;;;0.36;93.60
32789;BME280;19141;48.980;8.410;2023-01-27T09:00:19;100786.16;;;0.42;93.38
32789;BME280;19141;48.980;8.410;2023-01-27T09:02:45;100783.16;;;0.48;93.01
32789;BME280;19141;48.980;8.410;2023-01-27T09:05:10;100783.16;;;0.48;92.64
32789;BME280;19141;48.980;8.410;2023-01-27T09:07:36;100773.97;;;0.55;92.52
32789;BME280;19141;48.980;8.410;2023-01-27T09:10:01;100780.16;;;0.54;91.96
32789;BME280;19141;48.980;8.410;2023-01-27T09:12:27;100776.94;;;0.63;91.78
32789;BME280;19141;48.980;8.410;2023-01-27T09:14:52;100788.84;;;0.69;91.08
32789;BME280;19141;48.980;8.410;2023-01-27T09:17:18;100791.47;;;0.69;90.11
32789;BME280;19141;48.980;8.410;2023-01-27T09:19:45;100794.75;;;0.72;89.87
32789;BME280;19141;48.980;8.410;2023-01-27T09:22:11;100799.88;;;0.74;89.26
32789;BME280;19141;48.980;8.410;2023-01-27T09:24:36;100793.59;;;0.76;88.31
32789;BME280;19141;48.980;8.410;2023-01-27T09:27:01;100796.53;;;0.72;88.26
32789;BME280;19141;48.980;8.410;2023-01-27T09:29:27;100803.97;;;0.78;87.85
32789;BME280;19141;48.980;8.410;2023-01-27T09:31:53;100804.91;;;0.77;87.37
32789;BME280;19141;48.980;8.410;2023-01-27T09:34:19;100809.16;;;0.79;87.47
32789;BME280;19141;48.980;8.410;2023-01-27T09:36:48;100813.63;;;0.77;87.97
32789;BME280;19141;48.980;8.410;2023-01-27T09:39:16;100814.19;;;0.82;87.46
32789;BME280;19141;48.980;8.410;2023-01-27T09:47:51;100802.56;;;0.87;87.87
32789;BME280;19141;48.980;8.410;2023-01-27T09:50:25;100808.72;;;1.00;87.40
32789;BME280;19141;48.980;8.410;2023-01-27T09:55:46;100809.91;;;1.08;85.81
32789;BME280;19141;48.980;8.410;2023-01-27T10:00:54;100812.69;;;1.20;84.33
32789;BME280;19141;48.980;8.410;2023-01-27T10:04:00;100813.31;;;1.23;84.08
32789;BME280;19141;48.980;8.410;2023-01-27T10:06:43;100808.06;;;1.23;83.08
32789;BME280;19141;48.980;8.410;2023-01-27T10:09:34;100815.41;;;1.18;83.83
32789;BME280;19141;48.980;8.410;2023-01-27T10:12:38;100815.41;;;1.18;83.13
32789;BME280;19141;48.980;8.410;2023-01-27T10:20:29;100811.44;;;1.25;83.55
32789;BME280;19141;48.980;8.410;2023-01-27T10:23:12;100804.16;;;1.16;82.70
32789;BME280;19141;48.980;8.410;2023-01-27T10:25:52;100809.72;;;1.12;82.95
32789;BME280;19141;48.980;8.410;2023-01-27T10:28:23;100807.81;;;1.14;82.18
32789;BME280;19141;48.980;8.410;2023-01-27T10:31:02;100809.50;;;1.15;82.78
32789;BME280;19141;48.980;8.410;2023-01-27T10:33:42;100803.63;;;1.11;82.95
32789;BME280;19141;48.980;8.410;2023-01-27T10:42:03;100803.59;;;1.38;83.29
32789;BME280;19141;48.980;8.410;2023-01-27T10:44:45;100801.41;;;1.45;81.52
32789;BME280;19141;48.980;8.410;2023-01-27T10:47:47;100804.16;;;1.56;80.10
32789;BME280;19141;48.980;8.410;2023-01-27T10:50:22;100802.28;;;1.58;79.92
32789;BME280;19141;48.980;8.410;2023-01-27T10:53:09;100797.03;;;1.58;82.06
32789;BME280;19141;48.980;8.410;2023-01-27T10:56:07;100797.34;;;1.53;80.05
32789;BME280;19141;48.980;8.410;2023-01-27T11:00:00;100796.59;;;1.51;79.91
32789;BME280;19141;48.980;8.410;2023-01-27T11:02:13;100804.69;;;1.61;79.37
32789;BME280;19141;48.980;8.410;2023-01-27T11:04:47;100796.69;;;1.50;80.34
32789;BME280;19141;48.980;8.410;2023-01-27T11:07:20;100790.19;;;1.55;81.05
32789;BME280;19141;48.980;8.410;2023-01-27T11:10:15;100791.88;;;1.56;81.59
32789;BME280;19141;48.980;8.410;2023-01-27T11:12:46;100793.78;;;1.67;81.18
32789;BME280;19141;48.980;8.410;2023-01-27T11:15:30;100787.81;;;1.65;80.49
32789;BME280;19141;48.980;8.410;2023-01-27T11:18:00;100789.47;;;1.66;80.35
32789;BME280;19141;48.980;8.410;2023-01-27T11:20:34;100783.81;;;1.72;81.22
32789;BME280;19141;48.980;8.410;2023-01-27T11:31:33;100782.25;;;1.70;80.08
32789;BME280;19141;48.980;8.410;2023-01-27T11:36:29;100779.94;;;1.65;81.17
32789;BME280;19141;48.980;8.410;2023-01-27T11:38:56;100777.19;;;1.67;80.54
32789;BME280;19141;48.980;8.410;2023-01-27T11:41:31;100775.81;;;1.74;80.50
32789;BME280;19141;48.980;8.410;2023-01-27T11:44:01;100783.81;;;1.72;80.70
32789;BME280;19141;48.980;8.410;2023-01-27T11:46:28;100778.56;;;1.72;80.30
32789;BME280;19141;48.980;8.410;2023-01-27T11:48:56;100782.97;;;1.72;79.73
32789;BME280;19141;48.980;8.410;2023-01-27T11:51:34;100777.72;;;1.72;80.40
32789;BME280;19141;48.980;8.410;2023-01-27T11:54:14;100783.28;;;1.67;79.63
32789;BME280;19141;48.980;8.410;2023-01-27T11:56:45;100769.97;;;1.70;80.28
32789;BME280;19141;48.980;8.410;2023-01-27T11:59:18;100768.34;;;1.68;79.70
32789;BME280;19141;48.980;8.410;2023-01-27T12:04:51;100765.13;;;1.64;80.69
32789;BME280;19141;48.980;8.410;2023-01-27T12:08:08;100758.59;;;1.70;81.36
32789;BME280;19141;48.980;8.410;2023-01-27T12:13:16;100759.75;;;1.78;79.81
32789;BME280;19141;48.980;8.410;2023-01-27T12:15:58;100750.50;;;1.85;79.32
32789;BME280;19141;48.980;8.410;2023-01-27T12:18:25;100755.47;;;1.77;79.19
32789;BME280;19141;48.980;8.410;2023-01-27T12:20:59;100755.47;;;1.77;79.35
32789;BME280;19141;48.980;8.410;2023-01-27T12:23:39;100761.13;;;1.71;79.90
32789;BME280;19141;48.980;8.410;2023-01-27T12:26:11;100758.94;;;1.78;81.11
32789;BME280;19141;48.980;8.410;2023-01-27T12:28:49;100760.72;;;1.77;80.35
32789;BME280;19141;48.980;8.410;2023-01-27T12:31:43;100760.91;;;1.74;80.22
32789;BME280;19141;48.980;8.410;2023-01-27T12:34:22;100766.38;;;1.71;80.45
32789;BME280;19141;48.980;8.410;2023-01-27T12:36:50;100768.34;;;1.68;80.50
32789;BME280;19141;48.980;8.410;2023-01-27T12:41:59;100763.22;;;1.66;79.84
32789;BME280;19141;48.980;8.410;2023-01-27T12:44:24;100766.78;;;1.65;79.91
32789;BME280;19141;48.980;8.410;2023-01-27T12:47:29;100763.44;;;1.63;80.24
32789;BME280;19141;48.980;8.410;2023-01-27T12:50:21;100759.50;;;1.56;80.98
32789;BME280;19141;48.980;8.410;2023-01-27T12:53:15;100760.28;;;1.58;81.04
32789;BME280;19141;48.980;8.410;2023-01-27T13:00:54;100751.22;;;1.49;81.73
32789;BME280;19141;48.980;8.410;2023-01-27T13:03:19;100759.31;;;1.59;81.46
32789;BME280;19141;48.980;8.410;2023-01-27T13:05:46;100761.41;;;1.54;82.42
32789;BME280;19141;48.980;8.410;2023-01-27T13:08:17;100761.53;;;1.65;81.56
32789;BME280;19141;48.980;8.410;2023-01-27T13:10:51;100758.50;;;1.71;80.78
32789;BME280;19141;48.980;8.410;2023-01-27T13:13:22;100766.16;;;1.74;81.47
32789;BME280;19141;48.980;8.410;2023-01-27T13:18:32;100767.94;;;1.74;80.55
32789;BME280;19141;48.980;8.410;2023-01-27T13:21:09;100769.09;;;1.82;80.89
32789;BME280;19141;48.980;8.410;2023-01-27T13:23:37;100776.47;;;1.77;80.13
32789;BME280;19141;48.980;8.410;2023-01-27T13:26:09;100776.25;;;1.80;79.55
32789;BME280;19141;48.980;8.410;2023-01-27T13:31:06;100781.81;;;1.76;80.40
32789;BME280;19141;48.980;8.410;2023-01-27T13:33:45;100780.47;;;1.83;80.37
32789;BME280;19141;48.980;8.410;2023-01-27T13:36:34;100783.72;;;1.86;80.53
32789;BME280;19141;48.980;8.410;2023-01-27T13:41:54;100777.72;;;1.84;81.65
32789;BME280;19141;48.980;8.410;2023-01-27T13:44:30;100773.50;;;1.82;80.09
32789;BME280;19141;48.980;8.410;2023-01-27T13:47:06;100776.97;;;1.95;80.54
32789;BME280;19141;48.980;8.410;2023-01-27T13:49:43;100777.50;;;2.00;80.62
32789;BME280;19141;48.980;8.410;2023-01-27T13:52:10;100774.78;;;2.02;78.57
32789;BME280;19141;48.980;8.410;2023-01-27T13:54:36;100766.59;;;1.94;78.58
32789;BME280;19141;48.980;8.410;2023-01-27T14:00:02;100779.00;;;2.04;78.59
32789;BME280;19141;48.980;8.410;2023-01-27T14:06:08;100775.22;;;1.96;78.85
32789;BME280;19141;48.980;8.410;2023-01-27T14:11:29;100775.72;;;2.01;78.79
32789;BME280;19141;48.980;8.410;2023-01-27T14:20:05;100770.88;;;1.95;78.93
32789;BME280;19141;48.980;8.410;2023-01-27T14:23:02;100776.91;;;1.97;78.71
32789;BME280;19141;48.980;8.410;2023-01-27T14:28:47;100772.47;;;1.84;79.20
32789;BME280;19141;48.980;8.410;2023-01-27T14:31:20;100768.16;;;1.71;80.59
32789;BME280;19141;48.980;8.410;2023-01-27T14:34:11;100777.94;;;1.81;80.79
32789;BME280;19141;48.980;8.410;2023-01-27T14:36:52;100780.78;;;1.78;80.08
32789;BME280;19141;48.980;8.410;2023-01-27T14:44:51;100776.78;;;1.85;80.61
32789;BME280;19141;48.980;8.410;2023-01-27T14:47:37;100786.34;;;1.86;79.97
32789;BME280;19141;48.980;8.410;2023-01-27T14:58:50;100796.13;;;1.84;81.22
32789;BME280;19141;48.980;8.410;2023-01-27T15:01:28;100805.69;;;1.85;80.82
32789;BME280;19141;48.980;8.410;2023-01-27T15:09:28;100798.75;;;1.84;82.13
32789;BME280;19141;48.980;8.410;2023-01-27T15:12:22;100800.97;;;1.90;82.29
32789;BME280;19141;48.980;8.410;2023-01-27T15:15:22;100791.28;;;1.91;81.57
32789;BME280;19141;48.980;8.410;2023-01-27T15:26:09;100806.75;;;1.96;80.81
32789;BME280;19141;48.980;8.410;2023-01-27T15:28:40;100798.94;;;1.94;80.76
32789;BME280;19141;48.980;8.410;2023-01-27T15:33:48;100814.63;;;1.96;81.89
32789;BME280;19141;48.980;8.410;2023-01-27T15:41:24;100808.94;;;1.89;83.34
32789;BME280;19141;48.980;8.410;2023-01-27T15:44:26;100816.38;;;1.82;83.02
32789;BME280;19141;48.980;8.410;2023-01-27T15:46:52;100815.13;;;1.88;83.75
32789;BME280;19141;48.980;8.410;2023-01-27T15:49:26;100817.88;;;1.86;83.63
32789;BME280;19141;48.980;8.410;2023-01-27T15:52:08;100824.06;;;1.85;83.10
32789;BME280;19141;48.980;8.410;2023-01-27T15:54:39;100819.22;;;1.79;83.21
32789;BME280;19141;48.980;8.410;2023-01-27T15:57:05;100821.13;;;1.77;83.11
32789;BME280;19141;48.980;8.410;2023-01-27T15:59:47;100823.63;;;1.66;83.63
32789;BME280;19141;48.980;8.410;2023-01-27T16:02:26;100830.44;;;1.69;83.43
32789;BME280;19141;48.980;8.410;2023-01-27T16:04:54;100832.00;;;1.58;83.84
32789;BME280;19141;48.980;8.410;2023-01-27T16:07:33;100842.41;;;1.60;84.90
32789;BME280;19141;48.980;8.410;2023-01-27T16:10:01;100838.09;;;1.59;84.36
32789;BME280;19141;48.980;8.410;2023-01-27T16:12:30;100840.19;;;1.54;85.99
32789;BME280;19141;48.980;8.410;2023-01-27T16:17:28;100840.72;;;1.59;84.93
32789;BME280;19141;48.980;8.410;2023-01-27T16:20:17;100844.38;;;1.56;84.65
32789;BME280;19141;48.980;8.410;2023-01-27T16:22:50;100842.63;;;1.57;84.81
32789;BME280;19141;48.980;8.410;2023-01-27T16:25:30;100840.91;;;1.56;85.65
32789;BME280;19141;48.980;8.410;2023-01-27T16:28:06;100841.75;;;1.56;85.16
32789;BME280;19141;48.980;8.410;2023-01-27T16:30:40;100851.78;;;1.64;85.35
32789;BME280;19141;48.980;8.410;2023-01-27T16:33:15;100851.56;;;1.67;86.29
32789;BME280;19141;48.980;8.410;2023-01-27T16:35:55;100842.97;;;1.65;86.77
32789;BME280;19141;48.980;8.410;2023-01-27T16:38:28;100852.50;;;1.66;85.49
32789;BME280;19141;48.980;8.410;2023-01-27T16:41:21;100846.41;;;1.66;85.89
32789;BME280;19141;48.980;8.410;2023-01-27T16:43:52;100843.16;;;1.62;85.53
32789;BME280;19141;48.980;8.410;2023-01-27T16:46:41;100846.81;;;1.59;85.26
32789;BME280;19141;48.980;8.410;2023-01-27T16:49:13;100845.88;;;1.60;84.46
32789;BME280;19141;48.980;8.410;2023-01-27T16:51:42;100854.41;;;1.64;84.63
32789;BME280;19141;48.980;8.410;2023-01-27T16:54:31;100857.88;;;1.65;84.98
32789;BME280;19141;48.980;8.410;2023-01-27T16:57:01;100853.44;;;1.52;84.91
32789;BME280;19141;48.980;8.410;2023-01-27T16:59:32;100859.31;;;1.56;86.03
32789;BME280;19141;48.980;8.410;2023-01-27T17:01:59;100864.47;;;1.57;85.46
32789;BME280;19141;48.980;8.410;2023-01-27T17:04:27;100857.22;;;1.61;85.66
32789;BME280;19141;48.980;8.410;2023-01-27T17:07:05;100869.41;;;1.62;85.61
32789;BME280;19141;48.980;8.410;2023-01-27T17:09:33;100874.59;;;1.63;85.67
32789;BME280;19141;48.980;8.410;2023-01-27T17:12:03;100870.91;;;1.66;85.24
32789;BME280;19141;48.980;8.410;2023-01-27T17:14:32;100879.63;;;1.67;85.14
32789;BME280;19141;48.980;8.410;2023-01-27T17:17:01;100870.34;;;1.61;85.77
32789;BME280;19141;48.980;8.410;2023-01-27T17:19:34;100871.31;;;1.60;86.09
32789;BME280;19141;48.980;8.410;2023-01-27T17:22:03;100874.75;;;1.60;86.01
32789;BME280;19141;48.980;8.410;2023-01-27T17:24:33;100869.41;;;1.62;85.73
32789;BME280;19141;48.980;8.410;2023-01-27T17:26:59;100871.13;;;1.63;85.46
32789;BME280;19141;48.980;8.410;2023-01-27T17:29:37;100879.00;;;1.63;86.17
32789;BME280;19141;48.980;8.410;2023-01-27T17:32:17;100872.78;;;1.64;85.17
32789;BME280;19141;48.980;8.410;2023-01-27T17:34:43;100871.97;;;1.63;85.40
32789;BME280;19141;48.980;8.410;2023-01-27T17:37:14;100872.03;;;1.62;85.59
32789;BME280;19141;48.980;8.410;2023-01-27T17:39:41;100874.88;;;1.59;85.84
32789;BME280;19141;48.980;8.410;2023-01-27T17:42:09;100877.50;;;1.59;86.75
32789;BME280;19141;48.980;8.410;2023-01-27T17:44:36;100872.03;;;1.62;86.32
32789;BME280;19141;48.980;8.410;2023-01-27T17:47:02;100880.13;;;1.59;86.63
32789;BME280;19141;48.980;8.410;2023-01-27T17:49:30;100875.06;;;1.56;86.76
32789;BME280;19141;48.980;8.410;2023-01-27T17:51:56;100879.19;;;1.60;86.47
32789;BME280;19141;48.980;8.410;2023-01-27T17:54:27;100887.72;;;1.63;86.73
32789;BME280;19141;48.980;8.410;2023-01-27T17:57:14;100885.16;;;1.62;86.59
32789;BME280;19141;48.980;8.410;2023-01-27T17:59:44;100883.59;;;1.59;86.39
32789;BME280;19141;48.980;8.410;2023-01-27T18:02:19;100894.09;;;1.59;86.61
32789;BME280;19141;48.980;8.410;2023-01-27T18:04:46;100902.81;;;1.60;86.51
32789;BME280;19141;48.980;8.410;2023-01-27T18:07:12;100887.72;;;1.63;86.94
32789;BME280;19141;48.980;8.410;2023-01-27T18:09:43;100896.44;;;1.64;86.27
32789;BME280;19141;48.980;8.410;2023-01-27T18:12:27;100891.38;;;1.61;86.21
32789;BME280;19141;48.980;8.410;2023-01-27T18:14:53;100894.09;;;1.59;87.36
32789;BME280;19141;48.980;8.410;2023-01-27T18:17:21;100885.16;;;1.62;86.84
32789;BME280;19141;48.980;8.410;2023-01-27T18:19:55;100889.50;;;1.63;86.53
32789;BME280;19141;48.980;8.410;2023-01-27T18:22:22;100894.75;;;1.63;87.05
32789;BME280;19141;48.980;8.410;2023-01-27T18:24:54;100890.22;;;1.65;86.20
32789;BME280;19141;48.980;8.410;2023-01-27T18:27:41;100893.47;;;1.69;85.92
32789;BME280;19141;48.980;8.410;2023-01-27T18:30:15;100894.66;;;1.65;85.62
32789;BME280;19141;48.980;8.410;2023-01-27T18:32:42;100898.84;;;1.67;85.77
32789;BME280;19141;48.980;8.410;2023-01-27T18:35:29;100900.53;;;1.68;85.86
32789;BME280;19141;48.980;8.410;2023-01-27T18:38:00;100890.97;;;1.67;85.37
32789;BME280;19141;48.980;8.410;2023-01-27T18:42:54;100900.63;;;1.67;85.46
32789;BME280;19141;48.980;8.410;2023-01-27T18:45:19;100894.00;;;1.61;86.20
32789;BME280;19141;48.980;8.410;2023-01-27T18:47:45;100906.94;;;1.64;86.45
32789;BME280;19141;48.980;8.410;2023-01-27T18:50:16;100906.09;;;1.63;85.49
32789;BME280;19141;48.980;8.410;2023-01-27T18:52:44;100910.41;;;1.65;85.56
32789;BME280;19141;48.980;8.410;2023-01-27T18:55:20;100900.75;;;1.65;85.77
32789;BME280;19141;48.980;8.410;2023-01-27T18:57:48;100911.97;;;1.67;85.59
32789;BME280;19141;48.980;8.410;2023-01-27T19:00:19;100906.53;;;1.70;86.04
32789;BME280;19141;48.980;8.410;2023-01-27T19:02:46;100904.00;;;1.69;86.19
32789;BME280;19141;48.980;8.410;2023-01-27T19:05:18;100914.81;;;1.64;85.45
32789;BME280;19141;48.980;8.410;2023-01-27T19:07:45;100908.19;;;1.58;85.93
32789;BME280;19141;48.980;8.410;2023-01-27T19:10:13;100921.75;;;1.65;86.07
32789;BME280;19141;48.980;8.410;2023-01-27T19:12:40;100919.75;;;1.69;85.73
32789;BME280;19141;48.980;8.410;2023-01-27T19:15:05;100920.81;;;1.66;85.66
32789;BME280;19141;48.980;8.410;2023-01-27T19:17:31;100913.88;;;1.65;85.90
32789;BME280;19141;48.980;8.410;2023-01-27T19:19:56;100915.16;;;1.72;85.31
32789;BME280;19141;48.980;8.410;2023-01-27T19:22:22;100925.66;;;1.72;85.43
32789;BME280;19141;48.980;8.410;2023-01-27T19:24:47;100931.97;;;1.70;85.34
32789;BME280;19141;48.980;8.410;2023-01-27T19:27:16;100929.34;;;1.70;85.68
32789;BME280;19141;48.980;8.410;2023-01-27T19:29:42;100929.22;;;1.71;86.17
32789;BME280;19141;48.980;8.410;2023-01-27T19:32:10;100933.72;;;1.69;86.19
32789;BME280;19141;48.980;8.410;2023-01-27T19:34:37;100930.06;;;1.72;84.96
32789;BME280;19141;48.980;8.410;2023-01-27T19:37:02;100919.69;;;1.70;85.45
32789;BME280;19141;48.980;8.410;2023-01-27T19:39:30;100921.25;;;1.73;85.02
32789;BME280;19141;48.980;8.410;2023-01-27T19:41:55;100924.59;;;1.75;85.25
32789;BME280;19141;48.980;8.410;2023-01-27T19:44:21;100929.97;;;1.73;85.51
32789;BME280;19141;48.980;8.410;2023-01-27T19:46:46;100930.81;;;1.74;86.22
32789;BME280;19141;48.980;8.410;2023-01-27T19:49:16;100939.41;;;1.76;85.78
32789;BME280;19141;48.980;8.410;2023-01-27T19:51:42;100935.03;;;1.76;85.79
32789;BME280;19141;48.980;8.410;2023-01-27T19:54:08;100930.69;;;1.75;85.43
32789;BME280;19141;48.980;8.410;2023-01-27T19:56:36;100935.03;;;1.76;85.77
32789;BME280;19141;48.980;8.410;2023-01-27T19:59:02;100936.59;;;1.79;85.28
32789;BME280;19141;48.980;8.410;2023-01-27T20:01:28;100942.69;;;1.79;85.59
32789;BME280;19141;48.980;8.410;2023-01-27T20:03:53;100941.13;;;1.77;85.75
32789;BME280;19141;48.980;8.410;2023-01-27T20:06:21;100938.41;;;1.78;86.58
32789;BME280;19141;48.980;8.410;2023-01-27T20:08:53;100938.28;;;1.80;85.81
32789;BME280;19141;48.980;8.410;2023-01-27T20:13:57;100942.91;;;1.76;85.89
32789;BME280;19141;48.980;8.410;2023-01-27T20:16:23;100936.78;;;1.76;86.51
32789;BME280;19141;48.980;8.410;2023-01-27T20:18:50;100944.59;;;1.77;86.19
32789;BME280;19141;48.980;8.410;2023-01-27T20:21:16;100937.44;;;1.79;85.58
32789;BME280;19141;48.980;8.410;2023-01-27T20:23:41;100948.69;;;1.81;86.16
32789;BME280;19141;48.980;8.410;2023-01-27T20:26:15;100941.97;;;1.77;86.55
32789;BME280;19141;48.980;8.410;2023-01-27T20:28:41;100942.69;;;1.79;86.34
32789;BME280;19141;48.980;8.410;2023-01-27T20:31:14;100941.41;;;1.72;86.71
32789;BME280;19141;48.980;8.410;2023-01-27T20:33:40;100939.91;;;1.68;88.18
32789;BME280;19141;48.980;8.410;2023-01-27T20:36:07;100952.66;;;1.74;87.50